ENNM/OSY METAR and TAF weather

Enter ICAO airport designator
Station Type Date Time Source
ENNM METAR 2018/01/16 08:50 UTC NOAA

ENNM 160850Z 09019KT 9999 FEW022 02/M05 Q0980


Station Type Date Time Source
ENNM Decoded METAR 2018/01/16 08:50 UTC NOAA

Namsos Lufthavn, Norway (ENNM) 64-28N 011-35E 2M
Jan 16, 2018 - 03:50 AM EST / 2018.01.16 0850 UTC
Wind: from the E (090 degrees) at 22 MPH (19 KT):0
Visibility: greater than 7 mile(s):0
Sky conditions: mostly clear
Temperature: 35 F (2 C)
Windchill: 23 F (-5 C):1
Dew Point: 23 F (-5 C)
Relative Humidity: 59%
Pressure (altimeter): 28.94 in. Hg (0980 hPa)
ob: ENNM 160850Z 09019KT 9999 FEW022 02/M05 Q0980
cycle: 9

Station Type Date Time Source
ENNM TAF UTC NOAA

Error!


Example: see airport list